Latest Coastal Weather Observations for Gold Coast Seaway

IDQ60701

Issued at 6:31 pm EST Wednesday 2 September 2015 (issued every 10 minutes, with the page automatically refreshed every 10 minutes)

About coastal observations | Map of coastal stations | Coastal observations for QLD | Marine services | Other Formats
Station Details ID: 040764 Name: GOLD COAST SEAWAY Lat: -27.94 Lon: 153.43 Height: 2.98 m
Data from the previous 72 hours. | See also: Recent months at Gold Coast Seaway
Date/Time
EST
Temp

°C
Wind Pressure Rain
since 9am
mm
Weather Cloud Vis
km
Sea
Height
m
Swell
Dir
 
Speed
knots
Gust
knots
hPa Trend Height
m
Period
s
Dir
02/06:30pm 19.2 N 12 15 1015.4 - 0.0 - - - - - - -
02/06:00pm 18.5 NNW 6 7 1015.5 - 0.0 - - - - - - -
02/05:30pm 19.3 N 7 9 1015.7 - 0.0 - - - - - - -
02/05:00pm 20.3 NNE 9 10 1015.0 - 0.0 - - - - - - -
02/04:30pm 20.8 NE 9 11 1015.0 - 0.0 - - - - - - -
02/04:00pm 21.5 NNE 9 10 1015.4 - 0.0 - - - - - - -
02/03:30pm 21.7 NE 9 10 1015.4 - 0.0 - - - - - - -
02/03:00pm 21.6 NE 11 14 1015.4 - 0.0 - - - - - - -
02/02:30pm 21.7 NE 11 14 1015.5 - 0.0 - - - - - - -
02/02:00pm 22.4 NE 10 12 1016.1 - 0.0 - - - - - - -
02/01:30pm 22.0 NE 9 10 1016.5 - 0.0 - - - - - - -
02/01:00pm 21.9 ENE 8 9 1017.2 - 0.0 - - - - - - -
02/12:30pm 21.6 ENE 8 9 1017.6 - 0.0 - - - - - - -
02/12:00pm 21.2 NE 8 9 1018.0 - 0.0 - - - - - - -
02/11:30am 20.9 ENE 7 8 1018.5 - 0.0 - - - - - - -
02/11:00am 21.0 NE 5 5 1018.9 - 0.0 - - - - - - -
02/10:30am 21.2 ENE 5 6 1019.1 - 0.0 - - - - - - -
02/10:00am 20.6 NE 5 5 1019.5 - 0.0 - - - - - - -
02/09:30am 19.2 WNW 5 5 1019.6 - 0.0 - - - - - - -
02/09:00am 17.1 WNW 4 5 1019.4 - 0.0 - - - - - - -
02/08:30am 15.8 NW 6 7 1019.5 - 0.0 - - - - - - -
02/08:00am 14.4 NW 6 8 1019.2 - 0.0 - - - - - - -
02/07:30am 12.9 WNW 7 8 1018.9 - 0.0 - - - - - - -
02/07:00am 12.0 WNW 7 7 1018.5 - 0.0 - - - - - - -
02/06:30am 10.3 W 6 6 1018.0 - 0.0 - - - - - - -
02/06:00am 8.2 WSW 4 5 1017.8 - 0.0 - - - - - - -
02/05:30am 10.0 WSW 3 5 1017.5 - 0.0 - - - - - - -
02/05:00am 10.6 WNW 7 8 1017.0 - 0.0 - - - - - - -
02/04:30am 10.4 SW 7 8 1016.6 - 0.0 - - - - - - -
02/04:00am 10.5 WSW 6 7 1016.7 - 0.0 - - - - - - -
02/03:30am 12.2 W 6 7 1016.4 - 0.0 - - - - - - -
02/03:00am 13.4 WNW 9 10 1016.5 - 0.0 - - - - - - -
02/02:30am 13.2 WNW 7 10 1016.4 - 0.0 - - - - - - -
02/02:00am 12.7 W 6 8 1016.6 - 0.0 - - - - - - -
02/01:30am 12.3 WNW 7 8 1016.6 - 0.0 - - - - - - -
02/01:00am 12.2 W 7 8 1016.5 - 0.0 - - - - - - -
02/12:30am 12.8 WNW 6 7 1016.6 - 0.0 - - - - - - -
02/12:00am 12.8 WNW 7 8 1016.2 - 0.0 - - - - - - -
 
Date/Time
EST
Temp

°C
Wind Pressure Rain
since 9am
mm
Weather Cloud Vis
km
Sea
Height
m
Swell
Dir
 
Speed
knots
Gust
knots
hPa Trend Height
m
Period
s
Dir
01/11:30pm 12.4 W 5 7 1016.3 - 0.0 - - - - - - -
01/11:00pm 12.6 SW 6 6 1016.1 - 0.0 - - - - - - -
01/10:30pm 14.0 SSW 5 7 1016.0 - 0.0 - - - - - - -
01/10:00pm 13.0 WNW 4 5 1015.9 - 0.0 - - - - - - -
01/09:30pm 12.1 SSW 6 7 1015.7 - 0.0 - - - - - - -
01/09:00pm 12.5 SSW 1 4 1015.5 - 0.0 - - - - - - -
01/08:30pm 14.6 SSW 4 5 1015.4 - 0.0 - - - - - - -
01/08:00pm 15.8 WSW 6 7 1015.1 - 0.0 - - - - - - -
01/07:30pm 15.3 NNW 5 8 1014.8 - 0.0 - - - - - - -
01/07:00pm 18.3 NW 5 7 1014.2 - 0.0 - - - - - - -
01/06:30pm 18.4 NNW 8 12 1013.8 - 0.0 - - - - - - -
01/06:00pm 19.0 NNW 8 12 1013.3 - 0.0 - - - - - - -
01/05:30pm 19.7 N 14 16 1013.1 - 0.0 - - - - - - -
01/05:00pm 20.6 NNE 14 16 1012.9 - 0.0 - - - - - - -
01/04:30pm 21.8 NNE 13 15 1012.6 - 0.0 - - - - - - -
01/04:00pm 23.5 N 11 14 1012.4 - 0.0 - - - - - - -
01/03:30pm 23.8 N 8 10 1012.5 - 0.0 - - - - - - -
01/03:00pm 24.3 NW 9 13 1012.6 - 0.0 - - - - - - -
01/02:30pm 23.6 NW 9 15 1013.1 - 0.0 - - - - - - -
01/02:00pm 24.0 NW 10 14 1013.2 - 0.0 - - - - - - -
01/01:30pm 23.7 WNW 8 12 1013.6 - 0.0 - - - - - - -
01/01:00pm 23.1 WNW 5 9 1013.8 - 0.0 - - - - - - -
01/12:30pm 22.6 NNW 6 10 1014.1 - 0.0 - - - - - - -
01/12:00pm 22.0 NW 9 14 1014.6 - 0.0 - - - - - - -
01/11:30am 21.8 NW 8 11 1015.3 - 0.0 - - - - - - -
01/11:00am 21.0 W 9 11 1016.0 - 0.0 - - - - - - -
01/10:30am 20.8 WNW 7 9 1016.2 - 0.0 - - - - - - -
01/10:00am 20.4 WNW 7 9 1016.4 - 0.0 - - - - - - -
01/09:30am 19.5 W 7 10 1016.5 - 0.0 - - - - - - -
01/09:00am 18.9 NW 7 9 1016.4 - 0.0 - - - - - - -
01/08:30am 17.5 WNW 9 10 1016.6 - 0.0 - - - - - - -
01/08:00am 15.9 W 6 7 1016.2 - 0.0 - - - - - - -
01/07:30am 14.8 WNW 7 8 1016.0 - 0.0 - - - - - - -
01/07:00am 13.7 WNW 6 8 1016.0 - 0.0 - - - - - - -
01/06:30am 11.3 WSW 5 6 1015.7 - 0.0 - - - - - - -
01/06:00am 11.8 WSW 5 6 1015.4 - 0.0 - - - - - - -
01/05:30am 12.8 W 7 8 1015.0 - 0.0 - - - - - - -
01/05:00am 13.4 WNW 9 11 1014.7 - 0.0 - - - - - - -
01/04:30am 13.5 WNW 9 10 1014.5 - 0.0 - - - - - - -
01/04:00am 13.6 W 7 9 1014.4 - 0.0 - - - - - - -
01/03:30am 11.9 W 5 7 1014.5 - 0.0 - - - - - - -
01/03:00am 12.4 W 6 7 1014.6 - 0.0 - - - - - - -
01/02:30am 12.5 W 6 7 1014.7 - 0.0 - - - - - - -
01/02:00am 13.1 W 7 8 1014.9 - 0.0 - - - - - - -
01/01:30am 13.0 W 7 7 1015.0 - 0.0 - - - - - - -
01/01:00am 13.1 WSW 6 6 1015.1 - 0.0 - - - - - - -
01/12:30am 13.4 WSW 5 6 1015.3 - 0.0 - - - - - - -
01/12:00am 14.0 WSW 7 8 1015.7 - 0.0 - - - - - - -
 
Date/Time
EST
Temp

°C
Wind Pressure Rain
since 9am
mm
Weather Cloud Vis
km
Sea
Height
m
Swell
Dir
 
Speed
knots
Gust
knots
hPa Trend Height
m
Period
s
Dir
31/11:30pm 13.5 SW 7 8 1015.8 - 0.0 - - - - - - -
31/11:00pm 13.5 SW 6 8 1015.8 - 0.0 - - - - - - -
31/10:30pm 13.7 SW 6 7 1015.7 - 0.0 - - - - - - -
31/10:00pm 14.2 SW 7 9 1015.7 - 0.0 - - - - - - -
31/09:30pm 14.5 SW 6 8 1015.6 - 0.0 - - - - - - -
31/09:00pm 14.9 SW 7 8 1015.4 - 0.0 - - - - - - -
31/08:30pm 15.3 SW 6 8 1015.3 - 0.0 - - - - - - -
31/08:00pm 15.0 ESE 4 5 1015.2 - 0.0 - - - - - - -
31/07:30pm 16.1 ESE 5 7 1015.0 - 0.0 - - - - - - -
31/07:00pm 17.0 E 5 6 1014.6 - 0.0 - - - - - - -
31/06:30pm 17.2 ESE 6 8 1014.3 - 0.0 - - - - - - -
31/06:00pm 17.6 ESE 7 8 1014.1 - 0.0 - - - - - - -
31/05:30pm 17.9 ESE 8 10 1013.9 - 0.0 - - - - - - -
31/05:00pm 18.3 ESE 7 8 1013.7 - 0.0 - - - - - - -
31/04:30pm 19.4 E 9 10 1013.3 - 0.0 - - - - - - -
31/04:00pm 19.8 ESE 9 11 1013.2 - 0.0 - - - - - - -
31/03:30pm 20.4 E 9 10 1013.2 - 0.0 - - - - - - -
31/03:00pm 19.3 ESE 9 10 1013.2 - 0.0 - - - - - - -
31/02:30pm 20.8 E 8 9 1013.3 - 0.0 - - - - - - -
31/02:00pm 21.2 E 7 9 1013.4 - 0.0 - - - - - - -
31/01:30pm 21.2 E 7 9 1013.5 - 0.0 - - - - - - -
31/01:00pm 21.4 ENE 7 8 1013.8 - 0.0 - - - - - - -
31/12:30pm 21.3 E 8 9 1014.0 - 0.0 - - - - - - -
31/12:00pm 21.5 E 6 7 1014.4 - 0.0 - - - - - - -
31/11:30am 21.3 E 5 7 1014.8 - 0.0 - - - - - - -
31/11:00am 21.4 ESE 7 8 1015.4 - 0.0 - - - - - - -
31/10:30am 21.0 SE 9 11 1015.8 - 0.0 - - - - - - -
31/10:00am 20.6 SE 8 9 1016.1 - 0.0 - - - - - - -
31/09:30am 20.2 SSE 9 13 1016.2 - 0.0 - - - - - - -
31/09:00am 19.1 SE 3 5 1016.3 - 0.0 - - - - - - -
31/08:30am 18.2 SE 4 6 1016.2 - 0.0 - - - - - - -
31/08:00am 16.4 WNW 4 6 1016.1 - 0.0 - - - - - - -
31/07:30am 15.2 W 4 5 1015.9 - 0.0 - - - - - - -
31/07:00am 14.2 SW 5 6 1015.8 - 0.0 - - - - - - -
31/06:30am 12.9 SW 4 6 1015.7 - 0.0 - - - - - - -
31/06:00am 13.0 W 6 7 1015.4 - 0.0 - - - - - - -
31/05:30am 12.8 WSW 2 6 1015.2 - 0.0 - - - - - - -
31/05:00am 13.6 WSW 5 7 1015.1 - 0.0 - - - - - - -
31/04:30am 14.0 W 5 6 1015.0 - 0.0 - - - - - - -
31/04:00am 13.7 WSW 2 6 1014.9 - 0.0 - - - - - - -
31/03:30am 13.7 WSW 6 7 1014.8 - 0.0 - - - - - - -
31/03:00am 13.7 W 5 6 1014.9 - 0.0 - - - - - - -
31/02:30am 14.5 WNW 6 8 1015.1 - 0.0 - - - - - - -
31/02:00am 14.4 WSW 5 7 1015.3 - 0.0 - - - - - - -
31/01:30am 14.3 W 6 7 1015.3 - 0.0 - - - - - - -
31/01:00am 14.8 W 5 6 1015.7 - 0.0 - - - - - - -
31/12:30am 15.1 WNW 7 8 1015.8 - 0.0 - - - - - - -
31/12:00am 15.4 WSW 6 8 1015.9 - 0.0 - - - - - - -
 
Date/Time
EST
Temp

°C
Wind Pressure Rain
since 9am
mm
Weather Cloud Vis
km
Sea
Height
m
Swell
Dir
 
Speed
knots
Gust
knots
hPa Trend Height
m
Period
s
Dir
30/11:30pm 15.6 SW 5 7 1016.2 - 0.0 - - - - - - -
30/11:00pm 16.5 SW 5 6 1016.2 - 0.0 - - - - - - -
30/10:30pm 16.9 SW 6 9 1016.3 - 0.0 - - - - - - -
30/10:00pm 17.0 SSW 8 12 1016.3 - 0.0 - - - - - - -
30/09:30pm 16.8 S 8 12 1016.4 - 0.0 - - - - - - -
30/09:00pm 16.4 S 9 12 1016.2 - 0.0 - - - - - - -
30/08:30pm 16.4 S 9 12 1016.2 - 0.0 - - - - - - -
30/08:00pm 16.5 S 11 17 1015.9 - 0.0 - - - - - - -
30/07:30pm 17.0 SSE 16 19 1015.7 - 0.0 - - - - - - -
30/07:00pm 17.3 SSE 15 18 1015.3 - 0.0 - - - - - - -

Other Formats:

Comma delimited format used in spreadsheet applications
http://www.bom.gov.au/fwo/IDQ60701/IDQ60701.94580.axf

JavaScript Object Notation format (JSON) in row-major order
http://www.bom.gov.au/fwo/IDQ60701/IDQ60701.94580.json